sensor_id;sensor_type;location;lat;lon;timestamp;pressure;altitude;pressure_sealevel;temperature;humidity
53715;BME280;39608;55.630;37.864;2023-03-03T00:03:51;98111.69;;;0.56;63.61
53715;BME280;39608;55.630;37.864;2023-03-03T00:08:53;98100.19;;;0.56;63.47
53715;BME280;39608;55.630;37.864;2023-03-03T00:13:55;98096.50;;;0.62;63.37
53715;BME280;39608;55.630;37.864;2023-03-03T00:18:59;98082.88;;;0.68;63.39
53715;BME280;39608;55.630;37.864;2023-03-03T00:24:13;98087.41;;;0.78;63.46
53715;BME280;39608;55.630;37.864;2023-03-03T00:29:26;98079.97;;;0.80;63.38
53715;BME280;39608;55.630;37.864;2023-03-03T00:34:33;98072.78;;;0.76;63.76
53715;BME280;39608;55.630;37.864;2023-03-03T00:39:37;98065.28;;;0.78;63.52
53715;BME280;39608;55.630;37.864;2023-03-03T00:44:40;98059.97;;;0.83;63.78
53715;BME280;39608;55.630;37.864;2023-03-03T00:49:44;98049.00;;;0.84;63.55
53715;BME280;39608;55.630;37.864;2023-03-03T00:54:47;98028.22;;;0.81;63.94
53715;BME280;39608;55.630;37.864;2023-03-03T00:59:49;98023.13;;;0.90;63.83
53715;BME280;39608;55.630;37.864;2023-03-03T01:04:52;98018.31;;;0.92;64.04
53715;BME280;39608;55.630;37.864;2023-03-03T01:09:55;98025.00;;;0.90;63.78
53715;BME280;39608;55.630;37.864;2023-03-03T01:14:57;98005.78;;;0.88;64.57
53715;BME280;39608;55.630;37.864;2023-03-03T01:20:01;98017.25;;;0.93;64.48
53715;BME280;39608;55.630;37.864;2023-03-03T01:25:05;98016.97;;;0.95;64.10
53715;BME280;39608;55.630;37.864;2023-03-03T01:30:08;98002.28;;;0.97;64.46
53715;BME280;39608;55.630;37.864;2023-03-03T01:35:11;97995.34;;;1.01;64.40
53715;BME280;39608;55.630;37.864;2023-03-03T01:40:15;98006.81;;;1.02;64.47
53715;BME280;39608;55.630;37.864;2023-03-03T01:45:20;98002.28;;;0.97;64.50
53715;BME280;39608;55.630;37.864;2023-03-03T01:50:39;97996.69;;;0.99;64.41
53715;BME280;39608;55.630;37.864;2023-03-03T01:55:43;97994.81;;;0.89;65.41
53715;BME280;39608;55.630;37.864;2023-03-03T02:00:49;97989.75;;;0.88;65.43
53715;BME280;39608;55.630;37.864;2023-03-03T02:05:56;97994.81;;;0.89;65.52
53715;BME280;39608;55.630;37.864;2023-03-03T02:11:01;97994.03;;;0.89;65.73
53715;BME280;39608;55.630;37.864;2023-03-03T02:16:04;97988.69;;;0.94;66.12
53715;BME280;39608;55.630;37.864;2023-03-03T02:21:10;97982.78;;;1.02;65.74
53715;BME280;39608;55.630;37.864;2023-03-03T02:26:15;97974.53;;;1.04;65.86
53715;BME280;39608;55.630;37.864;2023-03-03T02:31:20;97973.16;;;1.06;66.01
53715;BME280;39608;55.630;37.864;2023-03-03T02:36:23;97959.31;;;1.09;65.57
53715;BME280;39608;55.630;37.864;2023-03-03T02:41:32;97941.13;;;1.11;66.14
53715;BME280;39608;55.630;37.864;2023-03-03T02:46:36;97931.78;;;1.09;66.09
53715;BME280;39608;55.630;37.864;2023-03-03T02:51:39;97929.41;;;1.12;65.63
53715;BME280;39608;55.630;37.864;2023-03-03T02:56:43;97935.25;;;1.19;66.21
53715;BME280;39608;55.630;37.864;2023-03-03T03:01:45;97929.94;;;1.09;66.27
53715;BME280;39608;55.630;37.864;2023-03-03T03:06:47;97919.81;;;0.91;66.17
53715;BME280;39608;55.630;37.864;2023-03-03T03:11:51;97920.34;;;0.98;66.74
53715;BME280;39608;55.630;37.864;2023-03-03T03:16:53;97915.03;;;0.93;66.54
53715;BME280;39608;55.630;37.864;2023-03-03T03:21:55;97908.88;;;0.92;66.78
53715;BME280;39608;55.630;37.864;2023-03-03T03:26:58;97920.59;;;1.01;66.88
53715;BME280;39608;55.630;37.864;2023-03-03T03:32:00;97924.88;;;1.02;66.52
53715;BME280;39608;55.630;37.864;2023-03-03T03:37:02;97909.94;;;1.01;66.78
53715;BME280;39608;55.630;37.864;2023-03-03T03:42:06;97905.91;;;1.04;66.87
53715;BME280;39608;55.630;37.864;2023-03-03T03:47:08;97903.53;;;0.97;67.17
53715;BME280;39608;55.630;37.864;2023-03-03T03:52:10;97904.06;;;0.99;67.01
53715;BME280;39608;55.630;37.864;2023-03-03T03:57:13;97909.13;;;1.01;67.26
53715;BME280;39608;55.630;37.864;2023-03-03T04:02:15;97903.25;;;0.99;67.34
53715;BME280;39608;55.630;37.864;2023-03-03T04:07:17;97900.06;;;0.97;67.01
53715;BME280;39608;55.630;37.864;2023-03-03T04:12:21;97889.41;;;0.97;67.30
53715;BME280;39608;55.630;37.864;2023-03-03T04:17:23;97893.41;;;0.99;67.49
53715;BME280;39608;55.630;37.864;2023-03-03T04:22:25;97884.84;;;0.97;67.11
53715;BME280;39608;55.630;37.864;2023-03-03T04:27:31;97884.03;;;1.02;67.06
53715;BME280;39608;55.630;37.864;2023-03-03T04:32:33;97885.13;;;1.01;67.13
53715;BME280;39608;55.630;37.864;2023-03-03T04:37:36;97874.44;;;0.96;67.24
53715;BME280;39608;55.630;37.864;2023-03-03T04:42:41;97876.00;;;1.02;67.47
53715;BME280;39608;55.630;37.864;2023-03-03T04:47:43;97886.19;;;1.00;67.58
53715;BME280;39608;55.630;37.864;2023-03-03T04:52:45;97880.31;;;0.98;67.51
53715;BME280;39608;55.630;37.864;2023-03-03T04:57:48;97884.03;;;1.02;67.44
53715;BME280;39608;55.630;37.864;2023-03-03T05:02:50;97880.56;;;1.01;67.54
53715;BME280;39608;55.630;37.864;2023-03-03T05:07:52;97873.34;;;1.02;67.90
53715;BME280;39608;55.630;37.864;2023-03-03T05:12:55;97893.06;;;1.11;67.01
53715;BME280;39608;55.630;37.864;2023-03-03T05:17:58;97882.41;;;1.06;67.97
53715;BME280;39608;55.630;37.864;2023-03-03T05:23:00;97890.69;;;1.10;67.67
53715;BME280;39608;55.630;37.864;2023-03-03T05:28:04;97883.50;;;1.05;67.48
53715;BME280;39608;55.630;37.864;2023-03-03T05:33:06;97889.34;;;1.12;67.59
53715;BME280;39608;55.630;37.864;2023-03-03T05:38:08;97886.94;;;1.11;67.63
53715;BME280;39608;55.630;37.864;2023-03-03T05:43:12;97898.13;;;1.18;67.76
53715;BME280;39608;55.630;37.864;2023-03-03T05:48:14;97894.66;;;1.17;67.50
53715;BME280;39608;55.630;37.864;2023-03-03T05:53:16;97876.50;;;1.14;67.63
53715;BME280;39608;55.630;37.864;2023-03-03T05:58:20;97891.41;;;1.31;67.33
53715;BME280;39608;55.630;37.864;2023-03-03T06:03:22;97890.34;;;1.27;67.31
53715;BME280;39608;55.630;37.864;2023-03-03T06:08:24;97894.34;;;1.24;67.05
53715;BME280;39608;55.630;37.864;2023-03-03T06:13:29;97897.81;;;1.30;67.36
53715;BME280;39608;55.630;37.864;2023-03-03T06:18:31;97902.34;;;1.29;67.02
53715;BME280;39608;55.630;37.864;2023-03-03T06:23:33;97898.34;;;1.32;67.43
53715;BME280;39608;55.630;37.864;2023-03-03T06:28:36;97880.44;;;1.32;66.77
53715;BME280;39608;55.630;37.864;2023-03-03T06:33:38;97888.66;;;1.46;66.86
53715;BME280;39608;55.630;37.864;2023-03-03T06:38:41;97898.00;;;1.49;66.99
53715;BME280;39608;55.630;37.864;2023-03-03T06:43:45;97893.97;;;1.51;66.96
53715;BME280;39608;55.630;37.864;2023-03-03T06:48:47;97898.19;;;1.58;66.61
53715;BME280;39608;55.630;37.864;2023-03-03T06:53:51;97891.50;;;1.65;66.25
53715;BME280;39608;55.630;37.864;2023-03-03T06:58:57;97898.66;;;1.75;66.29
53715;BME280;39608;55.630;37.864;2023-03-03T07:04:09;97899.13;;;1.82;65.67
53715;BME280;39608;55.630;37.864;2023-03-03T07:09:19;97909.75;;;1.93;65.20
53715;BME280;39608;55.630;37.864;2023-03-03T07:14:23;97894.31;;;1.84;65.32
53715;BME280;39608;55.630;37.864;2023-03-03T07:19:30;97905.25;;;1.88;65.37
53715;BME280;39608;55.630;37.864;2023-03-03T07:24:34;97896.44;;;1.87;65.27
53715;BME280;39608;55.630;37.864;2023-03-03T07:29:37;97900.63;;;1.99;65.10
53715;BME280;39608;55.630;37.864;2023-03-03T07:34:43;97907.63;;;1.95;65.17
53715;BME280;39608;55.630;37.864;2023-03-03T07:39:49;97893.22;;;1.85;65.29
53715;BME280;39608;55.630;37.864;2023-03-03T07:44:54;97905.47;;;1.92;64.58
53715;BME280;39608;55.630;37.864;2023-03-03T07:49:59;97881.78;;;1.80;64.70
53715;BME280;39608;55.630;37.864;2023-03-03T07:55:22;97914.78;;;1.99;64.67
53715;BME280;39608;55.630;37.864;2023-03-03T08:06:32;97919.28;;;2.04;64.31
53715;BME280;39608;55.630;37.864;2023-03-03T08:11:43;97918.25;;;2.00;64.34
53715;BME280;39608;55.630;37.864;2023-03-03T08:16:48;97911.28;;;2.04;64.41
53715;BME280;39608;55.630;37.864;2023-03-03T08:21:52;97924.25;;;2.21;64.38
53715;BME280;39608;55.630;37.864;2023-03-03T08:26:54;97920.75;;;2.26;64.25
53715;BME280;39608;55.630;37.864;2023-03-03T08:31:56;97931.41;;;2.31;63.74
53715;BME280;39608;55.630;37.864;2023-03-03T08:37:00;97929.56;;;2.26;63.18
53715;BME280;39608;55.630;37.864;2023-03-03T08:42:02;97929.38;;;2.17;63.55
53715;BME280;39608;55.630;37.864;2023-03-03T08:47:04;97926.81;;;2.36;64.43
53715;BME280;39608;55.630;37.864;2023-03-03T08:52:08;97923.94;;;2.62;64.02
53715;BME280;39608;55.630;37.864;2023-03-03T08:57:10;97925.38;;;2.79;63.72
53715;BME280;39608;55.630;37.864;2023-03-03T09:02:12;97928.91;;;2.74;63.53
53715;BME280;39608;55.630;37.864;2023-03-03T09:07:16;97938.66;;;2.60;63.12
53715;BME280;39608;55.630;37.864;2023-03-03T09:12:25;97942.47;;;2.53;63.71
53715;BME280;39608;55.630;37.864;2023-03-03T09:17:31;97948.91;;;2.52;64.29
53715;BME280;39608;55.630;37.864;2023-03-03T09:22:37;97949.00;;;2.71;64.16
53715;BME280;39608;55.630;37.864;2023-03-03T09:27:39;97948.00;;;2.91;63.40
53715;BME280;39608;55.630;37.864;2023-03-03T09:32:41;97945.19;;;3.07;63.67
53715;BME280;39608;55.630;37.864;2023-03-03T09:37:47;97937.56;;;3.19;62.56
53715;BME280;39608;55.630;37.864;2023-03-03T09:42:59;97935.13;;;3.42;64.10
53715;BME280;39608;55.630;37.864;2023-03-03T09:48:18;97942.41;;;3.60;62.73
53715;BME280;39608;55.630;37.864;2023-03-03T09:53:37;97937.94;;;3.94;62.02
53715;BME280;39608;55.630;37.864;2023-03-03T09:58:54;97929.44;;;4.25;61.14
53715;BME280;39608;55.630;37.864;2023-03-03T10:15:26;97934.75;;;3.73;62.27
53715;BME280;39608;55.630;37.864;2023-03-03T10:20:38;97921.50;;;3.63;61.73
53715;BME280;39608;55.630;37.864;2023-03-03T10:25:51;97935.44;;;3.59;61.17
53715;BME280;39608;55.630;37.864;2023-03-03T10:31:01;97937.69;;;3.52;62.06
53715;BME280;39608;55.630;37.864;2023-03-03T10:36:22;97939.53;;;3.57;62.40
53715;BME280;39608;55.630;37.864;2023-03-03T10:41:47;97929.44;;;3.68;61.24
53715;BME280;39608;55.630;37.864;2023-03-03T10:47:02;97939.47;;;3.81;61.14
53715;BME280;39608;55.630;37.864;2023-03-03T10:52:25;97937.94;;;3.75;60.34
53715;BME280;39608;55.630;37.864;2023-03-03T10:57:36;97942.34;;;3.66;60.46
53715;BME280;39608;55.630;37.864;2023-03-03T11:02:53;97944.88;;;3.76;60.05
53715;BME280;39608;55.630;37.864;2023-03-03T11:08:03;97937.22;;;4.07;59.31
53715;BME280;39608;55.630;37.864;2023-03-03T11:13:14;97935.75;;;4.15;58.12
53715;BME280;39608;55.630;37.864;2023-03-03T11:18:35;97936.06;;;3.94;59.03
53715;BME280;39608;55.630;37.864;2023-03-03T11:23:57;97948.09;;;3.78;58.93
53715;BME280;39608;55.630;37.864;2023-03-03T11:29:18;97941.00;;;3.44;58.82
53715;BME280;39608;55.630;37.864;2023-03-03T11:34:44;97954.41;;;3.44;59.55
53715;BME280;39608;55.630;37.864;2023-03-03T11:39:52;97950.78;;;3.35;59.37
53715;BME280;39608;55.630;37.864;2023-03-03T11:44:58;97950.63;;;3.45;59.29
53715;BME280;39608;55.630;37.864;2023-03-03T11:50:04;97954.03;;;3.75;60.19
53715;BME280;39608;55.630;37.864;2023-03-03T11:55:13;97952.28;;;3.65;58.73
53715;BME280;39608;55.630;37.864;2023-03-03T12:00:25;97940.69;;;3.70;58.77
53715;BME280;39608;55.630;37.864;2023-03-03T12:05:40;97963.28;;;3.64;58.87
53715;BME280;39608;55.630;37.864;2023-03-03T12:10:47;97953.47;;;3.54;58.78
53715;BME280;39608;55.630;37.864;2023-03-03T12:16:05;97956.97;;;3.54;59.21
53715;BME280;39608;55.630;37.864;2023-03-03T12:21:21;97957.03;;;3.49;58.39
53715;BME280;39608;55.630;37.864;2023-03-03T12:26:28;97960.31;;;3.65;59.41
53715;BME280;39608;55.630;37.864;2023-03-03T12:31:41;97961.66;;;3.43;58.51
53715;BME280;39608;55.630;37.864;2023-03-03T12:37:09;97968.53;;;3.25;57.99
53715;BME280;39608;55.630;37.864;2023-03-03T12:42:23;97964.41;;;3.09;58.18
53715;BME280;39608;55.630;37.864;2023-03-03T12:47:28;97948.47;;;2.99;58.33
53715;BME280;39608;55.630;37.864;2023-03-03T12:52:45;97964.78;;;3.02;58.66
53715;BME280;39608;55.630;37.864;2023-03-03T12:57:59;97964.03;;;2.97;58.20
53715;BME280;39608;55.630;37.864;2023-03-03T13:03:12;97958.19;;;2.89;58.81
53715;BME280;39608;55.630;37.864;2023-03-03T13:08:28;97954.97;;;3.17;58.60
53715;BME280;39608;55.630;37.864;2023-03-03T13:13:35;97947.91;;;3.50;57.62
53715;BME280;39608;55.630;37.864;2023-03-03T13:18:49;97959.66;;;3.54;57.66
53715;BME280;39608;55.630;37.864;2023-03-03T13:24:01;97956.44;;;3.52;58.34
53715;BME280;39608;55.630;37.864;2023-03-03T13:29:13;97955.81;;;3.60;58.03
53715;BME280;39608;55.630;37.864;2023-03-03T13:34:24;97956.19;;;3.73;57.10
53715;BME280;39608;55.630;37.864;2023-03-03T13:39:33;97957.50;;;3.75;57.11
53715;BME280;39608;55.630;37.864;2023-03-03T13:44:40;97951.81;;;3.58;57.01
53715;BME280;39608;55.630;37.864;2023-03-03T13:49:48;97953.25;;;3.50;57.51
53715;BME280;39608;55.630;37.864;2023-03-03T13:55:18;97950.97;;;3.63;57.83
53715;BME280;39608;55.630;37.864;2023-03-03T14:00:26;97955.41;;;3.72;57.76
53715;BME280;39608;55.630;37.864;2023-03-03T14:05:35;97941.38;;;3.37;56.89
53715;BME280;39608;55.630;37.864;2023-03-03T14:10:44;97940.63;;;3.32;56.43
53715;BME280;39608;55.630;37.864;2023-03-03T14:15:53;97961.47;;;3.35;56.96
53715;BME280;39608;55.630;37.864;2023-03-03T14:20:59;97950.81;;;3.30;56.91
53715;BME280;39608;55.630;37.864;2023-03-03T14:26:09;97962.31;;;3.30;56.06
53715;BME280;39608;55.630;37.864;2023-03-03T14:31:17;97947.69;;;3.22;55.91
53715;BME280;39608;55.630;37.864;2023-03-03T14:36:26;97949.16;;;3.10;56.12
53715;BME280;39608;55.630;37.864;2023-03-03T14:41:39;97957.72;;;3.12;55.92
53715;BME280;39608;55.630;37.864;2023-03-03T14:46:42;97967.19;;;3.04;55.89
53715;BME280;39608;55.630;37.864;2023-03-03T14:51:46;97953.09;;;2.93;56.30
53715;BME280;39608;55.630;37.864;2023-03-03T14:57:04;97977.59;;;3.05;55.82
53715;BME280;39608;55.630;37.864;2023-03-03T15:02:29;97981.94;;;3.01;56.45
53715;BME280;39608;55.630;37.864;2023-03-03T15:07:33;97969.47;;;2.86;56.11
53715;BME280;39608;55.630;37.864;2023-03-03T15:12:39;97974.06;;;2.81;55.44
53715;BME280;39608;55.630;37.864;2023-03-03T15:17:43;97968.53;;;2.72;55.37
53715;BME280;39608;55.630;37.864;2023-03-03T15:23:03;97979.44;;;2.81;55.84
53715;BME280;39608;55.630;37.864;2023-03-03T15:28:19;97981.81;;;2.82;55.36
53715;BME280;39608;55.630;37.864;2023-03-03T15:33:28;97985.59;;;2.81;55.53
53715;BME280;39608;55.630;37.864;2023-03-03T15:38:39;97983.47;;;2.78;54.95
53715;BME280;39608;55.630;37.864;2023-03-03T15:43:54;97993.06;;;2.84;55.23
53715;BME280;39608;55.630;37.864;2023-03-03T15:49:12;97995.75;;;2.84;55.49
53715;BME280;39608;55.630;37.864;2023-03-03T15:54:36;97993.00;;;2.89;55.57
53715;BME280;39608;55.630;37.864;2023-03-03T16:05:24;97981.06;;;2.77;55.30
53715;BME280;39608;55.630;37.864;2023-03-03T16:10:33;97986.88;;;2.84;55.34
53715;BME280;39608;55.630;37.864;2023-03-03T16:15:47;97995.97;;;2.88;54.94
53715;BME280;39608;55.630;37.864;2023-03-03T16:21:03;97992.50;;;2.87;55.86
53715;BME280;39608;55.630;37.864;2023-03-03T16:26:16;97988.28;;;2.81;55.40
53715;BME280;39608;55.630;37.864;2023-03-03T16:31:24;97997.88;;;2.82;55.16
53715;BME280;39608;55.630;37.864;2023-03-03T16:36:37;97984.75;;;2.86;54.90
53715;BME280;39608;55.630;37.864;2023-03-03T16:41:45;97980.47;;;2.85;55.11
53715;BME280;39608;55.630;37.864;2023-03-03T16:46:49;97982.84;;;2.86;54.78
53715;BME280;39608;55.630;37.864;2023-03-03T16:51:55;97979.69;;;2.84;54.92
53715;BME280;39608;55.630;37.864;2023-03-03T16:57:07;97978.03;;;2.88;54.90
53715;BME280;39608;55.630;37.864;2023-03-03T17:07:42;97971.38;;;2.86;55.13
53715;BME280;39608;55.630;37.864;2023-03-03T17:13:06;97975.34;;;2.88;55.33
53715;BME280;39608;55.630;37.864;2023-03-03T17:18:16;97972.22;;;2.81;55.47
53715;BME280;39608;55.630;37.864;2023-03-03T17:23:40;97968.16;;;2.84;55.05
53715;BME280;39608;55.630;37.864;2023-03-03T17:28:49;97987.75;;;2.79;55.56
53715;BME280;39608;55.630;37.864;2023-03-03T17:34:21;97973.31;;;2.75;55.22
53715;BME280;39608;55.630;37.864;2023-03-03T17:39:49;97980.28;;;2.76;55.91
53715;BME280;39608;55.630;37.864;2023-03-03T17:45:03;97976.31;;;2.68;55.29
53715;BME280;39608;55.630;37.864;2023-03-03T17:50:22;97976.88;;;2.65;55.29
53715;BME280;39608;55.630;37.864;2023-03-03T17:55:39;97975.34;;;2.59;55.13
53715;BME280;39608;55.630;37.864;2023-03-03T18:00:53;97985.56;;;2.52;55.68
53715;BME280;39608;55.630;37.864;2023-03-03T18:06:33;97979.97;;;2.48;55.52
53715;BME280;39608;55.630;37.864;2023-03-03T18:12:03;97978.16;;;2.44;55.60
53715;BME280;39608;55.630;37.864;2023-03-03T18:17:18;97980.88;;;2.33;55.23
53715;BME280;39608;55.630;37.864;2023-03-03T18:22:30;97985.72;;;2.31;55.65
53715;BME280;39608;55.630;37.864;2023-03-03T18:27:35;97975.88;;;2.21;55.10
53715;BME280;39608;55.630;37.864;2023-03-03T18:32:40;97985.19;;;2.29;55.70
53715;BME280;39608;55.630;37.864;2023-03-03T18:37:44;97981.16;;;2.32;55.26
53715;BME280;39608;55.630;37.864;2023-03-03T18:42:47;97980.66;;;2.30;55.19
53715;BME280;39608;55.630;37.864;2023-03-03T18:48:01;97981.44;;;2.30;55.34
53715;BME280;39608;55.630;37.864;2023-03-03T18:53:15;97973.31;;;2.06;55.16
53715;BME280;39608;55.630;37.864;2023-03-03T18:58:35;97971.00;;;1.89;55.54
53715;BME280;39608;55.630;37.864;2023-03-03T19:09:18;97981.84;;;1.58;55.55
53715;BME280;39608;55.630;37.864;2023-03-03T19:14:31;97976.50;;;1.53;55.42
53715;BME280;39608;55.630;37.864;2023-03-03T19:20:06;97986.38;;;1.63;55.25
53715;BME280;39608;55.630;37.864;2023-03-03T19:25:17;97989.03;;;1.58;55.41
53715;BME280;39608;55.630;37.864;2023-03-03T19:30:35;97979.47;;;1.46;55.67
53715;BME280;39608;55.630;37.864;2023-03-03T19:35:49;97987.25;;;1.32;56.23
53715;BME280;39608;55.630;37.864;2023-03-03T19:41:01;97976.34;;;1.18;56.07
53715;BME280;39608;55.630;37.864;2023-03-03T19:46:23;97978.50;;;1.11;56.22
53715;BME280;39608;55.630;37.864;2023-03-03T19:51:33;97968.38;;;0.98;56.38
53715;BME280;39608;55.630;37.864;2023-03-03T19:56:41;97977.72;;;1.00;56.63
53715;BME280;39608;55.630;37.864;2023-03-03T20:01:52;97967.88;;;0.91;56.65
53715;BME280;39608;55.630;37.864;2023-03-03T20:07:05;97965.19;;;0.91;57.16
53715;BME280;39608;55.630;37.864;2023-03-03T20:12:35;97965.47;;;0.94;56.80
53715;BME280;39608;55.630;37.864;2023-03-03T20:17:54;97945.44;;;0.87;56.81
53715;BME280;39608;55.630;37.864;2023-03-03T20:23:03;97957.22;;;0.85;56.95
53715;BME280;39608;55.630;37.864;2023-03-03T20:28:28;97951.34;;;0.83;57.02
53715;BME280;39608;55.630;37.864;2023-03-03T20:33:45;97953.50;;;0.81;57.46
53715;BME280;39608;55.630;37.864;2023-03-03T20:39:01;97937.75;;;0.75;57.34
53715;BME280;39608;55.630;37.864;2023-03-03T20:44:14;97931.88;;;0.57;57.43
53715;BME280;39608;55.630;37.864;2023-03-03T20:54:55;97933.25;;;0.55;58.09
53715;BME280;39608;55.630;37.864;2023-03-03T21:00:05;97903.09;;;0.44;58.33
53715;BME280;39608;55.630;37.864;2023-03-03T21:05:11;97923.38;;;0.60;58.17
53715;BME280;39608;55.630;37.864;2023-03-03T21:10:15;97924.69;;;0.63;58.21
53715;BME280;39608;55.630;37.864;2023-03-03T21:15:27;97919.09;;;0.64;58.11
53715;BME280;39608;55.630;37.864;2023-03-03T21:20:31;97918.28;;;0.59;58.25
53715;BME280;39608;55.630;37.864;2023-03-03T21:25:47;97910.28;;;0.59;58.33
53715;BME280;39608;55.630;37.864;2023-03-03T21:31:10;97901.78;;;0.46;58.73
53715;BME280;39608;55.630;37.864;2023-03-03T21:36:14;97900.16;;;0.40;58.69
53715;BME280;39608;55.630;37.864;2023-03-03T21:41:17;97910.31;;;0.33;58.56
53715;BME280;39608;55.630;37.864;2023-03-03T21:46:22;97906.59;;;0.34;58.93
53715;BME280;39608;55.630;37.864;2023-03-03T21:51:25;97890.56;;;0.24;58.90
53715;BME280;39608;55.630;37.864;2023-03-03T21:56:28;97901.22;;;0.24;58.99
53715;BME280;39608;55.630;37.864;2023-03-03T22:01:31;97896.19;;;0.22;59.22
53715;BME280;39608;55.630;37.864;2023-03-03T22:06:33;97887.41;;;0.11;59.49
53715;BME280;39608;55.630;37.864;2023-03-03T22:11:35;97891.38;;;0.04;59.10
53715;BME280;39608;55.630;37.864;2023-03-03T22:16:40;97876.16;;;-0.11;59.39
53715;BME280;39608;55.630;37.864;2023-03-03T22:21:43;97885.25;;;-0.12;59.39
53715;BME280;39608;55.630;37.864;2023-03-03T22:26:46;97880.44;;;-0.15;59.95
53715;BME280;39608;55.630;37.864;2023-03-03T22:31:49;97880.44;;;-0.15;60.17
53715;BME280;39608;55.630;37.864;2023-03-03T22:36:52;97870.56;;;-0.20;60.14
53715;BME280;39608;55.630;37.864;2023-03-03T22:41:54;97874.56;;;-0.23;60.04
53715;BME280;39608;55.630;37.864;2023-03-03T22:46:57;97878.56;;;-0.25;60.54
53715;BME280;39608;55.630;37.864;2023-03-03T22:51:59;97874.56;;;-0.28;60.27
53715;BME280;39608;55.630;37.864;2023-03-03T22:57:02;97872.97;;;-0.39;60.44
53715;BME280;39608;55.630;37.864;2023-03-03T23:02:05;97882.25;;;-0.37;60.56
53715;BME280;39608;55.630;37.864;2023-03-03T23:07:08;97858.28;;;-0.52;60.99
53715;BME280;39608;55.630;37.864;2023-03-03T23:12:10;97874.00;;;-0.56;60.83
53715;BME280;39608;55.630;37.864;2023-03-03T23:17:13;97865.97;;;-0.61;61.20
53715;BME280;39608;55.630;37.864;2023-03-03T23:22:15;97862.78;;;-0.68;61.69
53715;BME280;39608;55.630;37.864;2023-03-03T23:27:17;97842.25;;;-0.78;61.72
53715;BME280;39608;55.630;37.864;2023-03-03T23:32:21;97844.66;;;-0.76;61.67
53715;BME280;39608;55.630;37.864;2023-03-03T23:37:24;97839.03;;;-0.80;61.47
53715;BME280;39608;55.630;37.864;2023-03-03T23:42:26;97831.06;;;-0.85;62.01
53715;BME280;39608;55.630;37.864;2023-03-03T23:47:31;97814.78;;;-0.99;61.75
53715;BME280;39608;55.630;37.864;2023-03-03T23:52:33;97830.50;;;-0.92;62.09
53715;BME280;39608;55.630;37.864;2023-03-03T23:57:35;97825.16;;;-0.97;61.97
